This is the latest recevied weather packets stored in our database for station/object LRBC. If no packets are shown the sender has not sent any weather packets the latest 10 day(s).
| Time | Temp. | Humidity | Pressure | Rain* | Wind** | Luminosity | Snow |
|---|---|---|---|---|---|---|---|
| 1777653227 | 11.11° C | 35% | 1023 hPa | - | - | - | - |
| 1777652327 | 12.22° C | 33% | 1024 hPa | - | - | - | - |
| 1777651428 | 12.22° C | 33% | 1024 hPa | - | - | - | - |
| 1777649627 | 12.22° C | 33% | 1024 hPa | - | - | - | - |
| 1777648728 | 12.22° C | 35% | 1024 hPa | - | - | - | - |
| 1777647827 | 12.22° C | 35% | 1024 hPa | - | - | - | - |
| 1777646965 | 12.22° C | 30% | 1024 hPa | - | - | - | - |
| 1777646109 | 12.22° C | 30% | 1024 hPa | - | - | - | - |
| 1777645125 | 12.22° C | 30% | 1024 hPa | - | - | - | - |
| 1777644227 | 12.22° C | 30% | 1024 hPa | - | - | - | - |
| 1777643328 | 12.22° C | 30% | 1024 hPa | - | - | - | - |
| 1777642428 | 12.22° C | 30% | 1024 hPa | - | - | - | - |
| 1777641528 | 12.22° C | 33% | 1024 hPa | - | - | - | - |
| 1777639727 | 12.78° C | 28% | 1024 hPa | - | - | - | - |
| 1777638827 | 12.78° C | 28% | 1024 hPa | - | - | - | - |
| 1777637943 | 12.22° C | 33% | 1025 hPa | - | - | - | - |
| 1777637028 | 12.22° C | 33% | 1025 hPa | - | - | - | - |
| 1777635228 | 12.22° C | 33% | 1025 hPa | - | - | - | - |
| 1777634327 | 12.22° C | 33% | 1025 hPa | - | - | - | - |
| 1777633428 | 12.22° C | 33% | 1025 hPa | - | - | - | - |
| 1777632528 | 11.11° C | 32% | 1025 hPa | - | - | - | - |
| 1777631627 | 11.11° C | 32% | 1025 hPa | - | - | - | - |
| 1777630728 | 10° C | 35% | 1025 hPa | - | - | - | - |
| 1777629827 | 10° C | 35% | 1025 hPa | - | - | - | - |
| 1777628927 | 11.11° C | 32% | 1025 hPa | - | - | - | - |
* Rain since midnight (hover to see other rain measurements)
** Current wind speed in m/s (hover to see current wind gust speed)